BAW2X KSFO-EGLL
Flight info
| Callsign | BAW2X |
|---|---|
| Flight time | N/A |
| Altitude | 33000 |
| Route | SNTNA2 DEDHD DCT ILA DCT BKE/N0487F350 DCT STIGS DCT 53N110W DCT YVC DCT 60N095W/N0498F370 65N084W 67N070W/M084F370 DCT CANEL DCT 68N060W 68N050W 67N040W 66N030W/M085F390 63N020W DCT ERAKA/N0481F390 DCT ETSOM DCT KELLY L10 WAL UY53 NUGRA |
| Aircraft | A388/J-SADE2E3FGHIJ3J4J5M1RWXY/LB1D1 |
Departure
| Time | 2026-05-03 21:20 |
|---|---|
| Airport | San Francisco International Airport (KSFO) |
Arrival
| Time | N/A |
|---|---|
| Airport | London Heathrow Airport (EGLL) |
| Time | Latitude | Longitude | Altitude | Speed | Heading |
|---|---|---|---|---|---|
| 2026-05-03 21:07 | 37.61150 | -122.38828 | 25 ft | 0 kts | 202° |
| 2026-05-03 21:09 | 37.61147 | -122.38829 | 28 ft | 2 kts | 203° |
| 2026-05-03 21:09 | 37.61125 | -122.38842 | 29 ft | 5 kts | 206° |
| 2026-05-03 21:09 | 37.61071 | -122.38874 | 30 ft | 11 kts | 195° |
| 2026-05-03 21:10 | 37.61017 | -122.38845 | 31 ft | 9 kts | 140° |
| 2026-05-03 21:10 | 37.60972 | -122.38774 | 28 ft | 13 kts | 121° |
| 2026-05-03 21:10 | 37.60929 | -122.38669 | 28 ft | 14 kts | 117° |
| 2026-05-03 21:10 | 37.60888 | -122.38559 | 28 ft | 13 kts | 108° |
| 2026-05-03 21:11 | 37.60877 | -122.38471 | 25 ft | 1 kts | 109° |
| 2026-05-03 21:11 | 37.60864 | -122.38424 | 27 ft | 7 kts | 107° |
| 2026-05-03 21:11 | 37.60865 | -122.38394 | 27 ft | 1 kts | 42° |
| 2026-05-03 21:11 | 37.60894 | -122.38376 | 29 ft | 9 kts | 24° |
| 2026-05-03 21:12 | 37.60989 | -122.38317 | 30 ft | 20 kts | 27° |
| 2026-05-03 21:12 | 37.61120 | -122.38227 | 30 ft | 23 kts | 28° |
| 2026-05-03 21:12 | 37.61265 | -122.38131 | 27 ft | 24 kts | 27° |
| 2026-05-03 21:12 | 37.61419 | -122.38032 | 29 ft | 26 kts | 27° |
| 2026-05-03 21:13 | 37.61576 | -122.37930 | 31 ft | 23 kts | 27° |
| 2026-05-03 21:13 | 37.61631 | -122.37894 | 29 ft | 5 kts | 28° |
| 2026-05-03 21:13 | 37.61667 | -122.37860 | 29 ft | 7 kts | 67° |
| 2026-05-03 21:13 | 37.61669 | -122.37793 | 28 ft | 9 kts | 102° |
| 2026-05-03 21:14 | 37.61658 | -122.37701 | 27 ft | 13 kts | 98° |
| 2026-05-03 21:14 | 37.61645 | -122.37581 | 27 ft | 14 kts | 98° |
| 2026-05-03 21:14 | 37.61631 | -122.37450 | 28 ft | 16 kts | 97° |
| 2026-05-03 21:14 | 37.61618 | -122.37306 | 29 ft | 17 kts | 98° |
| 2026-05-03 21:15 | 37.61576 | -122.37171 | 29 ft | 17 kts | 117° |
| 2026-05-03 21:15 | 37.61523 | -122.37043 | 28 ft | 17 kts | 117° |
| 2026-05-03 21:15 | 37.61460 | -122.36916 | 26 ft | 18 kts | 130° |
| 2026-05-03 21:15 | 37.61381 | -122.36802 | 31 ft | 18 kts | 126° |
| 2026-05-03 21:16 | 37.61319 | -122.36671 | 28 ft | 17 kts | 119° |
| 2026-05-03 21:16 | 37.61263 | -122.36541 | 28 ft | 17 kts | 118° |
| 2026-05-03 21:16 | 37.61207 | -122.36411 | 31 ft | 17 kts | 118° |
| 2026-05-03 21:16 | 37.61153 | -122.36282 | 31 ft | 16 kts | 117° |
| 2026-05-03 21:17 | 37.61102 | -122.36153 | 30 ft | 16 kts | 117° |
| 2026-05-03 21:17 | 37.61069 | -122.36070 | 27 ft | 13 kts | 117° |
| 2026-05-03 21:17 | 37.61075 | -122.35933 | 30 ft | 13 kts | 50° |
| 2026-05-03 21:17 | 37.61155 | -122.35862 | 31 ft | 16 kts | 28° |
| 2026-05-03 21:18 | 37.61176 | -122.35854 | 28 ft | 2 kts | 350° |
| 2026-05-03 21:18 | 37.61189 | -122.35863 | 28 ft | 2 kts | 304° |
| 2026-05-03 21:18 | 37.61195 | -122.35886 | 28 ft | 4 kts | 286° |
| 2026-05-03 21:18 | 37.61199 | -122.35899 | 28 ft | 2 kts | 294° |
| 2026-05-03 21:19 | 37.61210 | -122.35930 | 31 ft | 5 kts | 295° |
| 2026-05-03 21:19 | 37.61271 | -122.36080 | 31 ft | 47 kts | 298° |
| 2026-05-03 21:19 | 37.61547 | -122.36736 | 31 ft | 118 kts | 297° |
| 2026-05-03 21:19 | 37.62021 | -122.37847 | 26 ft | 165 kts | 298° |
| 2026-05-03 21:20 | 37.62596 | -122.39168 | 387 ft | 171 kts | 294° |
| 2026-05-03 21:20 | 37.63148 | -122.40485 | 897 ft | 172 kts | 295° |
| 2026-05-03 21:20 | 37.63685 | -122.41837 | 1454 ft | 171 kts | 294° |
| 2026-05-03 21:20 | 37.64238 | -122.43180 | 1877 ft | 178 kts | 296° |
| 2026-05-03 21:21 | 37.64865 | -122.44605 | 2025 ft | 192 kts | 296° |
| 2026-05-03 21:21 | 37.65539 | -122.46126 | 2130 ft | 205 kts | 296° |
| 2026-05-03 21:21 | 37.66263 | -122.47760 | 2188 ft | 223 kts | 296° |
| 2026-05-03 21:21 | 37.67040 | -122.49547 | 2445 ft | 243 kts | 296° |
| 2026-05-03 21:22 | 37.68030 | -122.51376 | 2834 ft | 259 kts | 316° |
| 2026-05-03 21:22 | 37.69611 | -122.52478 | 3493 ft | 266 kts | 345° |
| 2026-05-03 21:22 | 37.71476 | -122.52701 | 4123 ft | 272 kts | 358° |
| 2026-05-03 21:22 | 37.73374 | -122.52710 | 4826 ft | 275 kts | 360° |
| 2026-05-03 21:23 | 37.75304 | -122.52713 | 5414 ft | 280 kts | 360° |
| 2026-05-03 21:23 | 37.77267 | -122.52744 | 6039 ft | 285 kts | 360° |
| 2026-05-03 21:23 | 37.79246 | -122.52519 | 6619 ft | 288 kts | 20° |
| 2026-05-03 21:23 | 37.79338 | -122.52483 | 6650 ft | 288 kts | 21° |
| 2026-05-03 21:24 | 37.79894 | -122.52199 | 6840 ft | 286 kts | 30° |
| 2026-05-03 21:24 | 37.81418 | -122.50656 | 7499 ft | 279 kts | 57° |
| 2026-05-03 21:24 | 37.82326 | -122.48511 | 8147 ft | 277 kts | 71° |
| 2026-05-03 21:24 | 37.83020 | -122.46228 | 8884 ft | 277 kts | 73° |
| 2026-05-03 21:25 | 37.83888 | -122.44049 | 9530 ft | 288 kts | 55° |
| 2026-05-03 21:25 | 37.85408 | -122.42361 | 10221 ft | 298 kts | 33° |
| 2026-05-03 21:25 | 37.87304 | -122.41109 | 10441 ft | 317 kts | 30° |
| 2026-05-03 21:25 | 37.89329 | -122.39823 | 10603 ft | 335 kts | 30° |
| 2026-05-03 21:26 | 37.91471 | -122.38463 | 10838 ft | 350 kts | 30° |
| 2026-05-03 21:26 | 37.93650 | -122.37077 | 11383 ft | 353 kts | 30° |
| 2026-05-03 21:26 | 37.95867 | -122.35660 | 11927 ft | 356 kts | 29° |
| 2026-05-03 21:26 | 37.98086 | -122.34237 | 12428 ft | 359 kts | 30° |
| 2026-05-03 21:27 | 38.00329 | -122.32795 | 12937 ft | 363 kts | 29° |
| 2026-05-03 21:27 | 38.02562 | -122.31357 | 13450 ft | 366 kts | 29° |
| 2026-05-03 21:27 | 38.04841 | -122.29887 | 13947 ft | 369 kts | 29° |
| 2026-05-03 21:27 | 38.07136 | -122.28406 | 14453 ft | 371 kts | 29° |
| 2026-05-03 21:28 | 38.09443 | -122.26917 | 14932 ft | 373 kts | 30° |
| 2026-05-03 21:28 | 38.11764 | -122.25417 | 15432 ft | 375 kts | 30° |
| 2026-05-03 21:28 | 38.14100 | -122.23907 | 15918 ft | 377 kts | 30° |
| 2026-05-03 21:28 | 38.16440 | -122.22393 | 16394 ft | 379 kts | 30° |
| 2026-05-03 21:29 | 38.18798 | -122.20866 | 16856 ft | 382 kts | 30° |
| 2026-05-03 21:29 | 38.21186 | -122.19319 | 17311 ft | 385 kts | 30° |
| 2026-05-03 21:29 | 38.23572 | -122.17770 | 17790 ft | 387 kts | 30° |
| 2026-05-03 21:29 | 38.25982 | -122.16206 | 18245 ft | 389 kts | 30° |
| 2026-05-03 21:30 | 38.28391 | -122.14642 | 18637 ft | 391 kts | 30° |
| 2026-05-03 21:30 | 38.30816 | -122.13070 | 19060 ft | 392 kts | 28° |
| 2026-05-03 21:30 | 38.33361 | -122.11790 | 19485 ft | 395 kts | 19° |
| 2026-05-03 21:30 | 38.36056 | -122.11011 | 19894 ft | 400 kts | 11° |
| 2026-05-03 21:31 | 38.38839 | -122.10678 | 20261 ft | 403 kts | 7° |
| 2026-05-03 21:31 | 38.41649 | -122.10374 | 20638 ft | 405 kts | 8° |
| 2026-05-03 21:31 | 38.44425 | -122.10048 | 20996 ft | 407 kts | 8° |
| 2026-05-03 21:31 | 38.47251 | -122.09712 | 21389 ft | 409 kts | 8° |
| 2026-05-03 21:32 | 38.50097 | -122.09376 | 21756 ft | 411 kts | 8° |
| 2026-05-03 21:32 | 38.52951 | -122.09043 | 22097 ft | 413 kts | 8° |
| 2026-05-03 21:32 | 38.55822 | -122.08710 | 22460 ft | 414 kts | 9° |
| 2026-05-03 21:32 | 38.58707 | -122.08373 | 22816 ft | 416 kts | 9° |
| 2026-05-03 21:33 | 38.61595 | -122.08038 | 23172 ft | 418 kts | 9° |
| 2026-05-03 21:33 | 38.64500 | -122.07702 | 23519 ft | 421 kts | 9° |
| 2026-05-03 21:33 | 38.67424 | -122.07363 | 23820 ft | 422 kts | 8° |
| 2026-05-03 21:33 | 38.70351 | -122.07026 | 24194 ft | 422 kts | 9° |
| 2026-05-03 21:34 | 38.73279 | -122.06687 | 24518 ft | 423 kts | 10° |
| 2026-05-03 21:34 | 38.76209 | -122.06346 | 24916 ft | 422 kts | 10° |
| 2026-05-03 21:34 | 38.79146 | -122.06003 | 25236 ft | 424 kts | 10° |
| 2026-05-03 21:34 | 38.82085 | -122.05659 | 25546 ft | 426 kts | 10° |
| 2026-05-03 21:35 | 38.85010 | -122.05317 | 25879 ft | 427 kts | 10° |
| 2026-05-03 21:35 | 38.87978 | -122.04970 | 26224 ft | 429 kts | 10° |
| 2026-05-03 21:35 | 38.90956 | -122.04622 | 26579 ft | 431 kts | 10° |
| 2026-05-03 21:35 | 38.93945 | -122.04272 | 26939 ft | 432 kts | 10° |
| 2026-05-03 21:36 | 38.96949 | -122.03921 | 27357 ft | 432 kts | 10° |
| 2026-05-03 21:36 | 38.99949 | -122.03570 | 27710 ft | 435 kts | 10° |
| 2026-05-03 21:36 | 39.02975 | -122.03211 | 28062 ft | 436 kts | 11° |
| 2026-05-03 21:36 | 39.05950 | -122.02550 | 28421 ft | 433 kts | 19° |
| 2026-05-03 21:37 | 39.08819 | -122.01398 | 28792 ft | 430 kts | 26° |
| 2026-05-03 21:37 | 39.11532 | -121.99817 | 29166 ft | 428 kts | 33° |
| 2026-05-03 21:37 | 39.14179 | -121.98025 | 29519 ft | 430 kts | 32° |
| 2026-05-03 21:37 | 39.16852 | -121.96253 | 29891 ft | 432 kts | 32° |
| 2026-05-03 21:38 | 39.19506 | -121.94504 | 30233 ft | 434 kts | 32° |
| 2026-05-03 21:38 | 39.22200 | -121.92726 | 30538 ft | 436 kts | 32° |
| 2026-05-03 21:38 | 39.24911 | -121.90932 | 30841 ft | 438 kts | 32° |
| 2026-05-03 21:38 | 39.27630 | -121.89128 | 31163 ft | 441 kts | 32° |
| 2026-05-03 21:39 | 39.30367 | -121.87310 | 31475 ft | 443 kts | 32° |
| 2026-05-03 21:39 | 39.33121 | -121.85478 | 31771 ft | 445 kts | 32° |
| 2026-05-03 21:39 | 39.35876 | -121.83644 | 32073 ft | 447 kts | 32° |
| 2026-05-03 21:39 | 39.38647 | -121.81797 | 32382 ft | 449 kts | 32° |
| 2026-05-03 21:40 | 39.41438 | -121.79936 | 32676 ft | 451 kts | 32° |
| 2026-05-03 21:40 | 39.44232 | -121.78070 | 32920 ft | 454 kts | 32° |
| 2026-05-03 21:40 | 39.49943 | -121.74243 | 32953 ft | 471 kts | 32° |
| 2026-05-03 21:41 | 39.55752 | -121.70352 | 32952 ft | 472 kts | 32° |
| 2026-05-03 21:41 | 39.61589 | -121.66436 | 32951 ft | 472 kts | 32° |
| 2026-05-03 21:42 | 39.67431 | -121.62505 | 32947 ft | 474 kts | 32° |
| 2026-05-03 21:42 | 39.73291 | -121.58554 | 32950 ft | 474 kts | 32° |
| 2026-05-03 21:43 | 39.79143 | -121.54601 | 32952 ft | 473 kts | 32° |
| 2026-05-03 21:43 | 39.85002 | -121.50635 | 32901 ft | 474 kts | 31° |
| 2026-05-03 21:44 | 39.90871 | -121.46656 | 33155 ft | 482 kts | 31° |
| 2026-05-03 21:44 | 39.93845 | -121.44638 | 33528 ft | 483 kts | 31° |
| 2026-05-03 21:44 | 39.96830 | -121.42610 | 33972 ft | 482 kts | 31° |
| 2026-05-03 21:45 | 39.99803 | -121.40586 | 34279 ft | 483 kts | 31° |
| 2026-05-03 21:45 | 40.02779 | -121.38558 | 34571 ft | 484 kts | 31° |
| 2026-05-03 21:45 | 40.05773 | -121.36515 | 34851 ft | 486 kts | 31° |
| 2026-05-03 21:45 | 40.08777 | -121.34465 | 35136 ft | 487 kts | 31° |
| 2026-05-03 21:46 | 40.11787 | -121.32409 | 35406 ft | 489 kts | 30° |
| 2026-05-03 21:46 | 40.14808 | -121.30343 | 35698 ft | 489 kts | 30° |
| 2026-05-03 21:46 | 40.16803 | -121.28977 | 35903 ft | 489 kts | 30° |
| 2026-05-03 21:46 | 40.19818 | -121.26912 | 36182 ft | 490 kts | 30° |
| 2026-05-03 21:47 | 40.22843 | -121.24838 | 36454 ft | 491 kts | 30° |
| 2026-05-03 21:47 | 40.25878 | -121.22755 | 36728 ft | 492 kts | 30° |
| 2026-05-03 21:47 | 40.28915 | -121.20668 | 36912 ft | 495 kts | 30° |
| 2026-05-03 21:47 | 40.32946 | -121.17896 | 36891 ft | 489 kts | 30° |
| 2026-05-03 21:48 | 40.37982 | -121.14427 | 36890 ft | 490 kts | 30° |
| 2026-05-03 21:48 | 40.44011 | -121.10264 | 36887 ft | 490 kts | 30° |
| 2026-05-03 21:49 | 40.50022 | -121.06105 | 36891 ft | 490 kts | 30° |
| 2026-05-03 21:49 | 40.56065 | -121.01917 | 36891 ft | 491 kts | 30° |